createdAt,value
2023-02-12T00:01:57.258Z,23.73
2023-02-12T00:04:23.826Z,22.33
2023-02-12T00:06:50.414Z,21.67
2023-02-12T00:09:16.892Z,22.60
2023-02-12T00:11:43.356Z,22.60
2023-02-12T00:14:09.865Z,23.92
2023-02-12T00:16:36.458Z,21.40
2023-02-12T00:19:02.975Z,25.27
2023-02-12T00:21:29.582Z,23.05
2023-02-12T00:23:56.262Z,23.10
2023-02-12T00:26:22.964Z,23.40
2023-02-12T00:28:50.401Z,21.02
2023-02-12T00:31:19.625Z,23.58
2023-02-12T00:33:46.366Z,23.77
2023-02-12T00:36:15.345Z,22.60
2023-02-12T00:38:41.955Z,23.08
2023-02-12T00:41:08.532Z,22.95
2023-02-12T00:43:35.176Z,23.05
2023-02-12T00:46:01.693Z,24.13
2023-02-12T00:48:28.345Z,23.95
2023-02-12T00:50:54.928Z,21.90
2023-02-12T00:53:21.489Z,23.45
2023-02-12T00:55:47.962Z,22.63
2023-02-12T00:58:16.135Z,23.20
2023-02-12T01:00:43.931Z,20.90
2023-02-12T01:03:10.422Z,23.00
2023-02-12T01:05:37.123Z,22.55
2023-02-12T01:08:03.700Z,22.17
2023-02-12T01:10:30.253Z,22.52
2023-02-12T01:12:56.776Z,23.52
2023-02-12T01:15:23.325Z,22.60
2023-02-12T01:17:53.273Z,23.42
2023-02-12T01:20:20.909Z,23.65
2023-02-12T01:22:47.414Z,23.75
2023-02-12T01:25:14.128Z,21.02
2023-02-12T01:27:40.719Z,21.80
2023-02-12T01:30:08.895Z,24.40
2023-02-12T01:32:35.413Z,23.63
2023-02-12T01:35:02.030Z,25.08
2023-02-12T01:37:28.546Z,22.73
2023-02-12T01:39:55.056Z,22.50
2023-02-12T01:42:21.747Z,23.33
2023-02-12T01:45:13.020Z,22.02
2023-02-12T01:47:44.118Z,23.15
2023-02-12T01:50:12.652Z,22.80
2023-02-12T01:52:40.036Z,21.42
2023-02-12T01:55:08.134Z,22.55
2023-02-12T01:57:37.476Z,22.48
2023-02-12T02:00:06.910Z,23.42
2023-02-12T02:02:33.451Z,23.30
2023-02-12T02:05:02.270Z,23.15
2023-02-12T02:07:28.716Z,24.27
2023-02-12T02:09:56.004Z,22.95
2023-02-12T02:12:41.286Z,24.17
2023-02-12T02:15:09.073Z,20.40
2023-02-12T02:17:38.511Z,25.60
2023-02-12T02:20:29.997Z,24.08
2023-02-12T02:23:28.926Z,21.42
2023-02-12T02:26:34.574Z,20.45
2023-02-12T02:29:11.305Z,21.92
2023-02-12T02:31:40.764Z,22.73
2023-02-12T02:34:44.463Z,24.35
2023-02-12T02:37:16.658Z,22.38
2023-02-12T02:40:07.528Z,22.77
2023-02-12T02:42:55.849Z,23.10
2023-02-12T02:45:36.829Z,21.45
2023-02-12T02:48:06.121Z,23.45
2023-02-12T02:50:32.613Z,23.77
2023-02-12T02:53:02.905Z,24.25
2023-02-12T02:55:33.170Z,21.92
2023-02-12T02:58:01.723Z,23.27
2023-02-12T03:00:36.178Z,23.42
2023-02-12T03:03:06.882Z,22.60
2023-02-12T03:05:36.218Z,22.75
2023-02-12T03:08:08.635Z,24.27
2023-02-12T03:10:38.240Z,27.95
2023-02-12T03:13:16.902Z,29.17
2023-02-12T03:15:49.790Z,29.13
2023-02-12T03:20:48.660Z,24.08
2023-02-12T03:23:21.833Z,26.80
2023-02-12T03:25:54.212Z,26.80
2023-02-12T03:28:23.743Z,28.77
2023-02-12T03:31:16.508Z,26.15
2023-02-12T03:34:11.905Z,24.77
2023-02-12T03:36:53.581Z,23.80
2023-02-12T03:39:39.726Z,27.20
2023-02-12T03:42:07.454Z,28.15
2023-02-12T03:44:58.263Z,33.97
2023-02-12T03:47:43.189Z,25.48
2023-02-12T03:50:45.860Z,28.08
2023-02-12T03:53:12.384Z,26.97
2023-02-12T03:55:41.271Z,32.65
2023-02-12T03:58:09.139Z,29.60
2023-02-12T04:00:37.854Z,28.13
2023-02-12T04:03:04.430Z,29.42
2023-02-12T04:05:30.944Z,33.85
2023-02-12T04:07:57.584Z,36.28
2023-02-12T04:10:38.605Z,35.60
2023-02-12T04:13:12.083Z,32.75
2023-02-12T04:16:02.055Z,30.27
2023-02-12T04:18:34.662Z,31.42
2023-02-12T04:21:12.693Z,37.83
2023-02-12T04:24:04.292Z,33.80
2023-02-12T04:26:39.987Z,29.27
2023-02-12T04:29:34.285Z,32.45
2023-02-12T04:32:13.196Z,30.02
2023-02-12T04:34:41.423Z,30.00
2023-02-12T04:37:17.141Z,31.33
2023-02-12T04:39:43.644Z,29.95
2023-02-12T04:42:10.129Z,33.03
2023-02-12T04:44:40.034Z,30.10
2023-02-12T04:47:06.502Z,31.33
2023-02-12T04:49:32.978Z,30.05
2023-02-12T04:51:59.562Z,28.25
2023-02-12T04:54:26.125Z,28.65
2023-02-12T04:56:52.669Z,30.17
2023-02-12T04:59:19.241Z,30.83
2023-02-12T05:01:45.943Z,32.03
2023-02-12T05:04:13.857Z,34.47
2023-02-12T05:06:40.445Z,32.83
2023-02-12T05:09:07.056Z,32.25
2023-02-12T05:11:33.506Z,31.75
2023-02-12T05:14:00.036Z,31.83
2023-02-12T05:16:26.614Z,31.67
2023-02-12T05:18:53.068Z,33.03
2023-02-12T05:21:19.579Z,33.88
2023-02-12T05:23:46.145Z,32.78
2023-02-12T05:26:17.680Z,36.80
2023-02-12T05:28:44.199Z,32.20
2023-02-12T05:31:12.974Z,34.83
2023-02-12T05:33:41.563Z,33.10
2023-02-12T05:36:10.053Z,32.65
2023-02-12T05:38:36.576Z,32.72
2023-02-12T05:41:07.737Z,32.97
2023-02-12T05:43:34.253Z,35.28
2023-02-12T05:46:01.583Z,29.55
2023-02-12T05:48:28.349Z,32.38
2023-02-12T05:50:55.101Z,34.20
2023-02-12T05:53:21.597Z,33.53
2023-02-12T05:55:48.082Z,33.33
2023-02-12T05:58:16.134Z,35.85
2023-02-12T06:00:42.730Z,40.97
2023-02-12T06:03:09.250Z,33.97
2023-02-12T06:05:35.764Z,33.67
2023-02-12T06:08:02.327Z,37.35
2023-02-12T06:10:28.821Z,36.20
2023-02-12T06:12:55.766Z,33.17
2023-02-12T06:15:22.262Z,35.42
2023-02-12T06:17:48.737Z,34.42
2023-02-12T06:20:15.476Z,33.75
2023-02-12T06:22:42.075Z,31.60
2023-02-12T06:25:08.667Z,31.60
2023-02-12T06:27:35.317Z,35.40
2023-02-12T06:30:01.837Z,34.60
2023-02-12T06:32:28.345Z,33.45
2023-02-12T06:34:54.911Z,35.80
2023-02-12T06:37:21.417Z,37.42
2023-02-12T06:39:47.898Z,36.92
2023-02-12T06:42:14.507Z,38.55
2023-02-12T06:44:40.996Z,37.42
2023-02-12T06:47:07.458Z,36.63
2023-02-12T06:49:34.021Z,37.17
2023-02-12T06:52:03.119Z,35.75
2023-02-12T06:54:29.987Z,36.40
2023-02-12T06:56:56.562Z,37.15
2023-02-12T06:59:23.074Z,34.00
2023-02-12T07:01:49.569Z,38.28
2023-02-12T07:04:16.381Z,36.90
2023-02-12T07:06:42.956Z,43.67
2023-02-12T07:09:09.442Z,40.28
2023-02-12T07:11:38.153Z,34.58
2023-02-12T07:14:05.290Z,37.80
2023-02-12T07:16:31.880Z,34.70
2023-02-12T07:18:58.489Z,41.78
2023-02-12T07:21:24.983Z,32.63
2023-02-12T07:23:52.223Z,36.13
2023-02-12T07:26:19.141Z,35.40
2023-02-12T07:28:45.651Z,36.75
2023-02-12T07:31:22.445Z,37.40
2023-02-12T07:33:49.633Z,34.17
2023-02-12T07:36:17.501Z,34.70
2023-02-12T07:38:44.136Z,35.53
2023-02-12T07:41:14.574Z,34.03
2023-02-12T07:43:41.796Z,35.55
2023-02-12T07:46:18.692Z,42.28
2023-02-12T07:48:45.779Z,37.97
2023-02-12T07:51:14.061Z,37.78
2023-02-12T07:53:40.611Z,37.45
2023-02-12T07:56:20.820Z,37.70
2023-02-12T07:58:48.243Z,33.67
2023-02-12T08:01:22.412Z,36.83
2023-02-12T08:03:49.582Z,35.58
2023-02-12T08:06:20.896Z,36.95
2023-02-12T08:08:47.543Z,33.65
2023-02-12T08:11:14.908Z,38.40
2023-02-12T08:13:41.426Z,36.10
2023-02-12T08:16:15.977Z,34.25
2023-02-12T08:18:42.627Z,35.40
2023-02-12T08:21:13.258Z,34.88
2023-02-12T08:23:39.825Z,33.55
2023-02-12T08:26:15.799Z,34.75
2023-02-12T08:28:44.710Z,31.50
2023-02-12T08:31:20.035Z,34.97
2023-02-12T08:33:47.316Z,32.13
2023-02-12T08:36:15.379Z,33.72
2023-02-12T08:38:42.286Z,34.20
2023-02-12T08:41:16.462Z,35.97
2023-02-12T08:43:43.188Z,30.52
2023-02-12T08:46:16.385Z,32.83
2023-02-12T08:48:42.898Z,33.65
2023-02-12T08:51:17.662Z,31.88
2023-02-12T08:53:45.580Z,31.23
2023-02-12T08:56:12.888Z,32.53
2023-02-12T08:58:39.419Z,31.88
2023-02-12T09:01:10.109Z,30.90
2023-02-12T09:03:36.634Z,29.88
2023-02-12T09:06:07.019Z,33.88
2023-02-12T09:08:33.687Z,33.45
2023-02-12T09:11:00.170Z,32.08
2023-02-12T09:13:27.132Z,31.60
2023-02-12T09:15:53.615Z,30.00
2023-02-12T09:18:20.096Z,31.35
2023-02-12T09:20:46.588Z,30.67
2023-02-12T09:23:13.661Z,29.67
2023-02-12T09:25:45.411Z,26.42
2023-02-12T09:28:13.025Z,28.83
2023-02-12T09:30:39.947Z,27.38
2023-02-12T09:33:06.947Z,29.75
2023-02-12T09:35:37.772Z,27.55
2023-02-12T09:38:04.826Z,28.42
2023-02-12T09:40:40.630Z,27.30
2023-02-12T09:43:25.756Z,27.67
2023-02-12T09:46:21.562Z,26.55
2023-02-12T09:49:08.134Z,28.73
2023-02-12T09:51:34.838Z,28.95
2023-02-12T09:54:15.290Z,25.92
2023-02-12T09:56:46.941Z,26.27
2023-02-12T09:59:17.395Z,26.73
2023-02-12T10:01:43.897Z,29.65
2023-02-12T10:04:10.453Z,26.65
2023-02-12T10:06:41.840Z,26.67
2023-02-12T10:09:30.193Z,28.20
2023-02-12T10:12:24.602Z,28.42
2023-02-12T10:14:57.052Z,27.80
2023-02-12T10:17:35.774Z,26.98
2023-02-12T10:20:24.140Z,26.88
2023-02-12T10:23:21.484Z,26.75
2023-02-12T10:26:22.721Z,25.92
2023-02-12T10:28:49.180Z,26.50
2023-02-12T10:31:31.238Z,26.85
2023-02-12T10:33:58.815Z,26.67
2023-02-12T10:36:44.496Z,24.65
2023-02-12T10:39:10.854Z,25.65
2023-02-12T10:42:05.098Z,25.73
2023-02-12T10:44:31.569Z,24.35
2023-02-12T10:46:58.110Z,26.30
2023-02-12T10:49:24.832Z,25.70
2023-02-12T10:52:12.909Z,24.75
2023-02-12T10:54:47.112Z,22.88
2023-02-12T10:57:14.802Z,23.58
2023-02-12T10:59:42.604Z,23.80
2023-02-12T11:02:23.111Z,22.80
2023-02-12T11:04:50.097Z,22.95
2023-02-12T11:07:16.671Z,23.13
2023-02-12T11:09:47.498Z,21.95
2023-02-12T11:12:22.727Z,21.35
2023-02-12T11:14:53.642Z,21.92
2023-02-12T11:17:25.486Z,19.75
2023-02-12T11:20:44.574Z,19.47
2023-02-12T11:23:29.425Z,21.48
2023-02-12T11:25:58.687Z,19.40
2023-02-12T11:28:25.446Z,19.95
2023-02-12T11:30:57.584Z,21.02
2023-02-12T11:33:26.403Z,21.50
2023-02-12T11:36:12.211Z,20.70
2023-02-12T11:38:50.419Z,20.85
2023-02-12T11:41:22.936Z,20.83
2023-02-12T11:43:50.430Z,21.13
2023-02-12T11:46:22.349Z,21.15
2023-02-12T11:48:48.966Z,20.27
2023-02-12T11:51:21.426Z,19.85
2023-02-12T11:53:49.952Z,20.70
2023-02-12T11:56:16.559Z,19.17
2023-02-12T11:58:44.833Z,19.95
2023-02-12T12:01:19.410Z,19.45
2023-02-12T12:04:15.368Z,17.95
2023-02-12T12:06:48.031Z,18.33
2023-02-12T12:09:23.091Z,17.80
2023-02-12T12:12:04.959Z,19.05
2023-02-12T12:15:00.127Z,18.20
2023-02-12T12:17:53.759Z,18.00
2023-02-12T12:20:22.620Z,17.98
2023-02-12T12:23:01.436Z,17.80
2023-02-12T12:25:34.997Z,19.38
2023-02-12T12:28:22.886Z,21.40
2023-02-12T12:31:09.330Z,20.55
2023-02-12T12:33:49.590Z,20.02
2023-02-12T12:36:55.250Z,20.40
2023-02-12T12:39:25.004Z,20.38
2023-02-12T12:41:54.117Z,19.40
2023-02-12T12:44:30.711Z,20.00
2023-02-12T12:47:22.366Z,19.55
2023-02-12T12:50:08.411Z,19.58
2023-02-12T12:52:59.753Z,19.73
2023-02-12T12:55:51.263Z,20.30
2023-02-12T12:58:36.081Z,19.17
2023-02-12T13:01:30.623Z,21.38
2023-02-12T13:04:24.772Z,20.27
2023-02-12T13:07:12.622Z,19.50
2023-02-12T13:09:45.789Z,19.88
2023-02-12T13:12:27.457Z,18.20
2023-02-12T13:14:57.013Z,15.93
2023-02-12T13:17:30.926Z,13.32
2023-02-12T13:20:12.703Z,12.77
2023-02-12T13:22:50.540Z,14.80
2023-02-12T13:25:22.201Z,14.20
2023-02-12T13:27:48.733Z,13.00
2023-02-12T13:30:16.155Z,10.73
2023-02-12T13:32:46.244Z,10.15
2023-02-12T13:35:20.055Z,9.68
2023-02-12T13:37:48.905Z,5.75
2023-02-12T13:40:26.566Z,7.30
2023-02-12T13:43:05.974Z,8.05
2023-02-12T13:45:38.431Z,9.18
2023-02-12T13:48:23.003Z,9.50
2023-02-12T13:51:09.670Z,10.75
2023-02-12T13:54:00.507Z,11.45
2023-02-12T13:56:46.290Z,11.23
2023-02-12T13:59:37.038Z,11.10
2023-02-12T14:02:12.440Z,11.40
2023-02-12T14:04:54.641Z,11.18
2023-02-12T14:07:21.555Z,9.70
2023-02-12T14:09:50.829Z,9.57
2023-02-12T14:12:24.322Z,10.02
2023-02-12T14:14:55.950Z,8.70
2023-02-12T14:17:28.582Z,9.95
2023-02-12T14:19:57.863Z,7.88
2023-02-12T14:22:26.994Z,9.23
2023-02-12T14:24:54.499Z,7.13
2023-02-12T14:27:27.239Z,6.32
2023-02-12T14:32:53.337Z,6.15
2023-02-12T14:35:35.899Z,5.32
2023-02-12T14:38:47.778Z,6.43
2023-02-12T14:41:34.451Z,5.53
2023-02-12T14:44:30.600Z,5.60
2023-02-12T14:46:57.666Z,7.57
2023-02-12T14:49:31.494Z,6.90
2023-02-12T14:52:07.237Z,6.35
2023-02-12T14:54:54.162Z,7.10
2023-02-12T14:57:23.587Z,5.95
2023-02-12T14:59:50.185Z,6.18
2023-02-12T15:02:36.940Z,6.80
2023-02-12T15:05:13.676Z,6.47
2023-02-12T15:07:49.654Z,6.90
2023-02-12T15:10:20.991Z,7.30
2023-02-12T15:12:57.869Z,7.72
2023-02-12T15:15:37.368Z,9.02
2023-02-12T15:18:10.788Z,8.00
2023-02-12T15:20:45.378Z,9.38
2023-02-12T15:23:33.973Z,8.45
2023-02-12T15:26:00.459Z,8.85
2023-02-12T15:28:33.566Z,8.68
2023-02-12T15:31:02.020Z,7.75
2023-02-12T15:33:32.927Z,7.28
2023-02-12T15:36:00.540Z,8.32
2023-02-12T15:38:41.603Z,8.38
2023-02-12T15:41:08.602Z,8.40
2023-02-12T15:43:39.286Z,8.35
2023-02-12T15:46:07.683Z,10.75
2023-02-12T15:48:35.426Z,12.95
2023-02-12T15:51:23.431Z,12.48
2023-02-12T15:53:49.995Z,11.68
2023-02-12T15:56:18.494Z,16.65
2023-02-12T15:58:55.698Z,16.05
2023-02-12T16:01:27.168Z,17.10
2023-02-12T16:03:55.667Z,17.30
2023-02-12T16:06:22.790Z,19.13
2023-02-12T16:08:50.811Z,17.85
2023-02-12T16:11:19.873Z,14.02
2023-02-12T16:13:58.131Z,15.73
2023-02-12T16:16:26.896Z,15.75
2023-02-12T16:19:18.531Z,15.60
2023-02-12T16:21:45.309Z,14.05
2023-02-12T16:24:22.761Z,13.20
2023-02-12T16:26:51.006Z,15.68
2023-02-12T16:29:17.682Z,16.90
2023-02-12T16:31:59.126Z,15.95
2023-02-12T16:34:33.931Z,17.48
2023-02-12T16:37:00.486Z,16.05
2023-02-12T16:40:07.551Z,17.50
2023-02-12T16:42:34.493Z,17.10
2023-02-12T16:45:00.986Z,17.40
2023-02-12T16:47:27.469Z,16.40
2023-02-12T16:49:58.870Z,19.90
2023-02-12T16:52:43.276Z,16.30
2023-02-12T16:55:14.253Z,15.30
2023-02-12T16:57:40.800Z,15.68
2023-02-12T17:00:08.320Z,16.63
2023-02-12T17:02:37.788Z,16.25
2023-02-12T17:05:07.132Z,17.95
2023-02-12T17:07:33.806Z,15.82
2023-02-12T17:10:00.678Z,21.15
2023-02-12T17:12:27.318Z,20.90
2023-02-12T17:14:54.807Z,27.10
2023-02-12T17:17:21.621Z,26.75
2023-02-12T17:19:48.209Z,22.85
2023-02-12T17:22:20.231Z,19.88
2023-02-12T17:24:51.358Z,17.73
2023-02-12T17:27:18.631Z,17.75
2023-02-12T17:29:45.194Z,19.42
2023-02-12T17:32:11.824Z,16.08
2023-02-12T17:34:47.999Z,15.23
2023-02-12T17:37:15.860Z,18.23
2023-02-12T17:39:42.350Z,19.33
2023-02-12T17:42:08.913Z,15.63
2023-02-12T17:44:35.517Z,16.98
2023-02-12T17:47:01.998Z,17.90
2023-02-12T17:49:28.510Z,20.23
2023-02-12T17:51:55.070Z,18.75
2023-02-12T17:54:21.724Z,18.90
2023-02-12T17:56:48.223Z,18.15
2023-02-12T17:59:14.749Z,20.92
2023-02-12T18:01:41.441Z,21.85
2023-02-12T18:04:08.067Z,18.77
2023-02-12T18:06:34.684Z,18.63
2023-02-12T18:09:03.744Z,19.02
2023-02-12T18:11:30.433Z,18.90
2023-02-12T18:13:57.431Z,20.35
2023-02-12T18:16:24.922Z,16.92
2023-02-12T18:18:51.432Z,19.42
2023-02-12T18:21:18.029Z,19.75
2023-02-12T18:23:44.587Z,18.23
2023-02-12T18:26:13.142Z,20.23
2023-02-12T18:28:39.671Z,21.77
2023-02-12T18:31:06.350Z,21.45
2023-02-12T18:33:32.956Z,22.77
2023-02-12T18:36:04.110Z,20.10
2023-02-12T18:38:30.648Z,22.08
2023-02-12T18:40:57.484Z,23.83
2023-02-12T18:43:24.874Z,24.33
2023-02-12T18:45:51.502Z,22.33
2023-02-12T18:48:18.097Z,18.00
2023-02-12T18:50:44.701Z,21.27
2023-02-12T18:53:11.266Z,23.20
2023-02-12T18:55:40.769Z,22.20
2023-02-12T18:58:07.340Z,22.52
2023-02-12T19:00:33.882Z,20.10
2023-02-12T19:03:00.451Z,19.00
2023-02-12T19:05:27.031Z,20.85
2023-02-12T19:07:53.609Z,20.80
2023-02-12T19:10:20.086Z,22.30
2023-02-12T19:12:46.702Z,20.77
2023-02-12T19:15:13.329Z,26.20
2023-02-12T19:17:39.807Z,22.42
2023-02-12T19:20:06.965Z,24.70
2023-02-12T19:22:33.612Z,23.25
2023-02-12T19:25:00.133Z,22.40
2023-02-12T19:27:26.714Z,21.92
2023-02-12T19:29:53.203Z,21.42
2023-02-12T19:32:19.771Z,17.92
2023-02-12T19:34:46.560Z,23.58
2023-02-12T19:37:13.807Z,23.33
2023-02-12T19:39:40.545Z,26.40
2023-02-12T19:42:07.083Z,27.83
2023-02-12T19:44:33.551Z,23.83
2023-02-12T19:47:00.056Z,23.40
2023-02-12T19:49:27.871Z,25.50
2023-02-12T19:51:54.392Z,25.90
2023-02-12T19:54:21.414Z,23.48
2023-02-12T19:56:48.122Z,23.17
2023-02-12T19:59:17.274Z,30.13
2023-02-12T20:01:44.160Z,26.00
2023-02-12T20:04:15.009Z,25.48
2023-02-12T20:06:41.600Z,22.08
2023-02-12T20:09:08.259Z,22.00
2023-02-12T20:11:37.580Z,20.48
2023-02-12T20:14:04.704Z,21.55
2023-02-12T20:16:36.175Z,21.95
2023-02-12T20:21:31.729Z,24.98
2023-02-12T20:23:58.507Z,22.58
2023-02-12T20:26:25.413Z,25.48
2023-02-12T20:28:51.901Z,25.42
2023-02-12T20:31:23.750Z,35.90
2023-02-12T20:33:54.559Z,29.77
2023-02-12T20:36:21.074Z,23.40
2023-02-12T20:38:50.354Z,24.52
2023-02-12T20:41:16.974Z,25.90
2023-02-12T20:43:43.485Z,29.85
2023-02-12T20:46:11.985Z,33.28
2023-02-12T20:48:38.776Z,32.28
2023-02-12T20:51:10.378Z,32.58
2023-02-12T20:53:36.940Z,29.60
2023-02-12T20:56:32.065Z,27.52
2023-02-12T20:58:59.143Z,25.45
2023-02-12T21:01:34.786Z,24.15
2023-02-12T21:04:03.418Z,28.98
2023-02-12T21:06:29.943Z,28.95
2023-02-12T21:08:56.481Z,30.52
2023-02-12T21:11:23.918Z,28.08
2023-02-12T21:13:59.066Z,31.25
2023-02-12T21:16:32.681Z,27.42
2023-02-12T21:18:59.261Z,29.05
2023-02-12T21:21:27.692Z,24.42
2023-02-12T21:23:56.827Z,22.48
2023-02-12T21:26:24.481Z,20.83
2023-02-12T21:28:51.515Z,22.70
2023-02-12T21:31:23.101Z,20.13
2023-02-12T21:33:50.507Z,23.80
2023-02-12T21:36:21.703Z,22.38
2023-02-12T21:38:49.920Z,22.63
2023-02-12T21:41:21.737Z,26.73
2023-02-12T21:43:50.261Z,26.15
2023-02-12T21:46:17.185Z,23.52
2023-02-12T21:48:44.571Z,24.23
2023-02-12T21:51:28.401Z,26.17
2023-02-12T21:53:57.569Z,30.65
2023-02-12T21:56:24.253Z,28.70
2023-02-12T21:58:50.919Z,32.05
2023-02-12T22:01:28.434Z,51.65
2023-02-12T22:03:55.150Z,35.92
2023-02-12T22:06:22.551Z,26.63
2023-02-12T22:08:49.627Z,27.17
2023-02-12T22:11:16.509Z,38.58
2023-02-12T22:13:43.094Z,30.73
2023-02-12T22:16:10.975Z,30.67
2023-02-12T22:18:37.548Z,48.35
2023-02-12T22:21:05.152Z,71.03
2023-02-12T22:23:31.861Z,89.80
2023-02-12T22:26:12.955Z,132.57
2023-02-12T22:28:44.608Z,73.35
2023-02-12T22:31:12.078Z,69.78
2023-02-12T22:33:38.661Z,54.13
2023-02-12T22:36:06.563Z,72.80
2023-02-12T22:38:33.929Z,85.38
2023-02-12T22:41:00.593Z,80.15
2023-02-12T22:43:33.064Z,82.72
2023-02-12T22:45:59.644Z,123.10
2023-02-12T22:48:26.538Z,52.58
2023-02-12T22:50:53.012Z,60.95
2023-02-12T22:53:19.549Z,56.17
2023-02-12T22:55:46.083Z,65.05
2023-02-12T22:58:12.577Z,79.32
2023-02-12T23:00:40.349Z,66.22
2023-02-12T23:03:07.083Z,106.93
2023-02-12T23:05:37.403Z,47.78
2023-02-12T23:08:04.630Z,70.50
2023-02-12T23:10:31.519Z,103.07
2023-02-12T23:12:58.168Z,105.80
2023-02-12T23:15:24.693Z,68.28
2023-02-12T23:17:51.474Z,123.70
2023-02-12T23:20:18.158Z,57.10
2023-02-12T23:22:44.626Z,65.53
2023-02-12T23:25:11.206Z,88.43
2023-02-12T23:27:37.898Z,78.82
2023-02-12T23:30:04.934Z,54.45
2023-02-12T23:32:31.454Z,50.30
2023-02-12T23:34:57.985Z,53.75
2023-02-12T23:37:24.439Z,52.05
2023-02-12T23:39:50.974Z,65.28
2023-02-12T23:42:17.521Z,43.75
2023-02-12T23:44:43.995Z,48.33
2023-02-12T23:47:10.546Z,41.10
2023-02-12T23:49:37.883Z,95.55
2023-02-12T23:52:04.561Z,55.42
2023-02-12T23:54:31.831Z,39.67
2023-02-12T23:56:58.365Z,64.80
2023-02-12T23:59:25.491Z,55.47
